sensor_id;sensor_type;location;lat;lon;timestamp;temperature;humidity
21393;DHT22;10857;52.228;21.026;2023-03-16T00:01:26;2.30;99.90
21393;DHT22;10857;52.228;21.026;2023-03-16T00:03:53;2.40;99.90
21393;DHT22;10857;52.228;21.026;2023-03-16T00:06:20;2.40;99.90
21393;DHT22;10857;52.228;21.026;2023-03-16T00:08:51;2.40;99.90
21393;DHT22;10857;52.228;21.026;2023-03-16T00:11:18;2.30;99.90
21393;DHT22;10857;52.228;21.026;2023-03-16T00:13:44;2.30;99.90
21393;DHT22;10857;52.228;21.026;2023-03-16T00:16:18;2.20;99.90
21393;DHT22;10857;52.228;21.026;2023-03-16T00:18:45;2.20;99.90
21393;DHT22;10857;52.228;21.026;2023-03-16T00:21:13;2.10;99.90
21393;DHT22;10857;52.228;21.026;2023-03-16T00:23:40;2.10;99.90
21393;DHT22;10857;52.228;21.026;2023-03-16T00:26:08;2.10;99.90
21393;DHT22;10857;52.228;21.026;2023-03-16T00:28:35;2.00;99.90
21393;DHT22;10857;52.228;21.026;2023-03-16T00:31:04;2.00;99.90
21393;DHT22;10857;52.228;21.026;2023-03-16T00:33:33;2.00;99.90
21393;DHT22;10857;52.228;21.026;2023-03-16T00:36:05;2.00;99.90
21393;DHT22;10857;52.228;21.026;2023-03-16T00:38:36;2.00;99.90
21393;DHT22;10857;52.228;21.026;2023-03-16T00:41:06;1.90;99.90
21393;DHT22;10857;52.228;21.026;2023-03-16T00:43:35;2.00;99.90
21393;DHT22;10857;52.228;21.026;2023-03-16T00:46:13;2.00;99.90
21393;DHT22;10857;52.228;21.026;2023-03-16T00:48:43;2.00;99.90
21393;DHT22;10857;52.228;21.026;2023-03-16T00:51:16;2.00;99.90
21393;DHT22;10857;52.228;21.026;2023-03-16T00:53:44;1.90;99.90
21393;DHT22;10857;52.228;21.026;2023-03-16T00:56:12;1.90;99.90
21393;DHT22;10857;52.228;21.026;2023-03-16T00:58:40;1.90;99.90
21393;DHT22;10857;52.228;21.026;2023-03-16T01:01:15;2.00;99.90
21393;DHT22;10857;52.228;21.026;2023-03-16T01:03:43;1.90;99.90
21393;DHT22;10857;52.228;21.026;2023-03-16T01:06:15;1.90;99.90
21393;DHT22;10857;52.228;21.026;2023-03-16T01:08:43;1.90;99.90
21393;DHT22;10857;52.228;21.026;2023-03-16T01:11:16;1.90;99.90
21393;DHT22;10857;52.228;21.026;2023-03-16T01:13:45;1.80;99.90
21393;DHT22;10857;52.228;21.026;2023-03-16T01:16:34;1.90;99.90
21393;DHT22;10857;52.228;21.026;2023-03-16T01:19:01;1.80;99.90
21393;DHT22;10857;52.228;21.026;2023-03-16T01:21:28;1.90;99.90
21393;DHT22;10857;52.228;21.026;2023-03-16T01:23:55;1.80;99.90
21393;DHT22;10857;52.228;21.026;2023-03-16T01:26:22;1.90;99.90
21393;DHT22;10857;52.228;21.026;2023-03-16T01:28:50;1.80;99.90
21393;DHT22;10857;52.228;21.026;2023-03-16T01:31:17;1.90;99.90
21393;DHT22;10857;52.228;21.026;2023-03-16T01:33:45;1.80;99.90
21393;DHT22;10857;52.228;21.026;2023-03-16T01:36:18;1.80;99.90
21393;DHT22;10857;52.228;21.026;2023-03-16T01:38:52;1.80;99.90
21393;DHT22;10857;52.228;21.026;2023-03-16T01:41:21;1.90;99.90
21393;DHT22;10857;52.228;21.026;2023-03-16T01:43:48;1.90;99.90
21393;DHT22;10857;52.228;21.026;2023-03-16T01:46:20;1.80;99.90
21393;DHT22;10857;52.228;21.026;2023-03-16T01:52:09;1.90;99.90
21393;DHT22;10857;52.228;21.026;2023-03-16T01:54:46;1.90;99.90
21393;DHT22;10857;52.228;21.026;2023-03-16T01:57:18;2.00;99.90
21393;DHT22;10857;52.228;21.026;2023-03-16T02:02:21;2.00;99.90
21393;DHT22;10857;52.228;21.026;2023-03-16T02:07:26;1.90;99.90
21393;DHT22;10857;52.228;21.026;2023-03-16T02:09:57;2.00;99.90
21393;DHT22;10857;52.228;21.026;2023-03-16T02:12:25;1.90;99.90
21393;DHT22;10857;52.228;21.026;2023-03-16T02:14:54;1.90;99.90
21393;DHT22;10857;52.228;21.026;2023-03-16T02:17:26;1.90;99.90
21393;DHT22;10857;52.228;21.026;2023-03-16T02:22:30;1.90;99.90
21393;DHT22;10857;52.228;21.026;2023-03-16T02:25:01;1.80;99.90
21393;DHT22;10857;52.228;21.026;2023-03-16T02:27:38;1.80;99.90
21393;DHT22;10857;52.228;21.026;2023-03-16T02:30:12;1.80;99.90
21393;DHT22;10857;52.228;21.026;2023-03-16T02:32:53;1.80;99.90
21393;DHT22;10857;52.228;21.026;2023-03-16T02:35:21;1.80;99.90
21393;DHT22;10857;52.228;21.026;2023-03-16T02:37:49;1.70;99.90
21393;DHT22;10857;52.228;21.026;2023-03-16T02:40:23;1.80;99.90
21393;DHT22;10857;52.228;21.026;2023-03-16T02:42:59;1.80;99.90
21393;DHT22;10857;52.228;21.026;2023-03-16T02:45:47;1.80;99.90
21393;DHT22;10857;52.228;21.026;2023-03-16T02:48:24;1.80;99.90
21393;DHT22;10857;52.228;21.026;2023-03-16T02:50:53;1.80;99.90
21393;DHT22;10857;52.228;21.026;2023-03-16T02:53:21;1.80;99.90
21393;DHT22;10857;52.228;21.026;2023-03-16T02:55:48;1.80;99.90
21393;DHT22;10857;52.228;21.026;2023-03-16T02:58:16;1.80;99.90
21393;DHT22;10857;52.228;21.026;2023-03-16T03:00:45;1.80;99.90
21393;DHT22;10857;52.228;21.026;2023-03-16T03:03:15;1.80;99.90
21393;DHT22;10857;52.228;21.026;2023-03-16T03:05:42;1.80;99.90
21393;DHT22;10857;52.228;21.026;2023-03-16T03:08:09;1.90;99.90
21393;DHT22;10857;52.228;21.026;2023-03-16T03:10:37;1.90;99.90
21393;DHT22;10857;52.228;21.026;2023-03-16T03:13:04;1.90;99.90
21393;DHT22;10857;52.228;21.026;2023-03-16T03:15:33;1.90;99.90
21393;DHT22;10857;52.228;21.026;2023-03-16T03:18:06;2.00;99.90
21393;DHT22;10857;52.228;21.026;2023-03-16T03:20:33;2.00;99.90
21393;DHT22;10857;52.228;21.026;2023-03-16T03:23:00;1.90;99.90
21393;DHT22;10857;52.228;21.026;2023-03-16T03:25:28;1.90;99.90
21393;DHT22;10857;52.228;21.026;2023-03-16T03:27:55;1.90;99.90
21393;DHT22;10857;52.228;21.026;2023-03-16T03:30:24;1.80;99.90
21393;DHT22;10857;52.228;21.026;2023-03-16T03:32:51;1.70;99.90
21393;DHT22;10857;52.228;21.026;2023-03-16T03:35:20;1.70;99.90
21393;DHT22;10857;52.228;21.026;2023-03-16T03:37:47;1.70;99.90
21393;DHT22;10857;52.228;21.026;2023-03-16T03:40:17;1.60;99.90
21393;DHT22;10857;52.228;21.026;2023-03-16T03:42:48;1.70;99.90
21393;DHT22;10857;52.228;21.026;2023-03-16T03:45:15;1.60;99.90
21393;DHT22;10857;52.228;21.026;2023-03-16T03:47:43;1.70;99.90
21393;DHT22;10857;52.228;21.026;2023-03-16T03:50:16;1.70;99.90
21393;DHT22;10857;52.228;21.026;2023-03-16T03:53:03;1.70;99.90
21393;DHT22;10857;52.228;21.026;2023-03-16T03:55:38;1.70;99.90
21393;DHT22;10857;52.228;21.026;2023-03-16T03:58:05;1.80;99.90
21393;DHT22;10857;52.228;21.026;2023-03-16T04:00:32;1.60;99.90
21393;DHT22;10857;52.228;21.026;2023-03-16T04:02:59;1.60;99.90
21393;DHT22;10857;52.228;21.026;2023-03-16T04:05:33;1.70;99.90
21393;DHT22;10857;52.228;21.026;2023-03-16T04:08:00;1.60;99.90
21393;DHT22;10857;52.228;21.026;2023-03-16T04:10:29;1.50;99.90
21393;DHT22;10857;52.228;21.026;2023-03-16T04:12:59;1.60;99.90
21393;DHT22;10857;52.228;21.026;2023-03-16T04:15:30;1.60;99.90
21393;DHT22;10857;52.228;21.026;2023-03-16T04:18:16;1.60;99.90
21393;DHT22;10857;52.228;21.026;2023-03-16T04:20:43;1.60;99.90
21393;DHT22;10857;52.228;21.026;2023-03-16T04:23:15;1.60;99.90
21393;DHT22;10857;52.228;21.026;2023-03-16T04:25:44;1.50;99.90
21393;DHT22;10857;52.228;21.026;2023-03-16T04:28:14;1.60;99.90
21393;DHT22;10857;52.228;21.026;2023-03-16T04:30:45;1.50;99.90
21393;DHT22;10857;52.228;21.026;2023-03-16T04:33:21;1.50;99.90
21393;DHT22;10857;52.228;21.026;2023-03-16T04:35:48;1.50;99.90
21393;DHT22;10857;52.228;21.026;2023-03-16T04:38:16;1.50;99.90
21393;DHT22;10857;52.228;21.026;2023-03-16T04:40:55;1.50;99.90
21393;DHT22;10857;52.228;21.026;2023-03-16T04:43:26;1.60;99.90
21393;DHT22;10857;52.228;21.026;2023-03-16T04:46:00;1.60;99.90
21393;DHT22;10857;52.228;21.026;2023-03-16T04:48:30;1.60;99.90
21393;DHT22;10857;52.228;21.026;2023-03-16T04:50:59;1.50;99.90
21393;DHT22;10857;52.228;21.026;2023-03-16T04:53:30;1.60;99.90
21393;DHT22;10857;52.228;21.026;2023-03-16T04:56:01;1.80;99.90
21393;DHT22;10857;52.228;21.026;2023-03-16T04:58:30;1.80;99.90
21393;DHT22;10857;52.228;21.026;2023-03-16T05:01:00;1.80;99.90
21393;DHT22;10857;52.228;21.026;2023-03-16T05:03:29;1.80;99.90
21393;DHT22;10857;52.228;21.026;2023-03-16T05:05:56;1.60;99.90
21393;DHT22;10857;52.228;21.026;2023-03-16T05:08:25;1.50;99.90
21393;DHT22;10857;52.228;21.026;2023-03-16T05:10:57;1.50;99.90
21393;DHT22;10857;52.228;21.026;2023-03-16T05:13:27;1.70;99.90
21393;DHT22;10857;52.228;21.026;2023-03-16T05:15:57;1.50;99.90
21393;DHT22;10857;52.228;21.026;2023-03-16T05:18:28;1.60;99.90
21393;DHT22;10857;52.228;21.026;2023-03-16T05:20:56;1.70;99.90
21393;DHT22;10857;52.228;21.026;2023-03-16T05:23:27;1.50;99.90
21393;DHT22;10857;52.228;21.026;2023-03-16T05:25:59;1.40;99.90
21393;DHT22;10857;52.228;21.026;2023-03-16T05:28:28;1.40;99.90
21393;DHT22;10857;52.228;21.026;2023-03-16T05:30:59;1.30;99.90
21393;DHT22;10857;52.228;21.026;2023-03-16T05:33:35;1.30;99.90
21393;DHT22;10857;52.228;21.026;2023-03-16T05:36:06;1.20;99.90
21393;DHT22;10857;52.228;21.026;2023-03-16T05:38:35;1.30;99.90
21393;DHT22;10857;52.228;21.026;2023-03-16T05:41:03;1.40;99.90
21393;DHT22;10857;52.228;21.026;2023-03-16T05:43:44;1.40;99.90
21393;DHT22;10857;52.228;21.026;2023-03-16T05:46:13;1.60;99.90
21393;DHT22;10857;52.228;21.026;2023-03-16T05:48:40;1.60;99.90
21393;DHT22;10857;52.228;21.026;2023-03-16T05:51:10;1.60;99.90
21393;DHT22;10857;52.228;21.026;2023-03-16T05:53:40;1.70;99.90
21393;DHT22;10857;52.228;21.026;2023-03-16T05:56:15;1.80;99.90
21393;DHT22;10857;52.228;21.026;2023-03-16T05:58:44;1.80;99.90
21393;DHT22;10857;52.228;21.026;2023-03-16T06:01:11;1.70;99.90
21393;DHT22;10857;52.228;21.026;2023-03-16T06:03:41;1.80;99.90
21393;DHT22;10857;52.228;21.026;2023-03-16T06:06:12;1.80;99.90
21393;DHT22;10857;52.228;21.026;2023-03-16T06:08:51;2.00;99.90
21393;DHT22;10857;52.228;21.026;2023-03-16T06:11:21;2.10;99.90
21393;DHT22;10857;52.228;21.026;2023-03-16T06:13:48;2.00;99.90
21393;DHT22;10857;52.228;21.026;2023-03-16T06:16:16;2.00;99.90
21393;DHT22;10857;52.228;21.026;2023-03-16T06:18:44;2.00;99.90
21393;DHT22;10857;52.228;21.026;2023-03-16T06:21:11;2.00;99.90
21393;DHT22;10857;52.228;21.026;2023-03-16T06:23:38;2.00;99.90
21393;DHT22;10857;52.228;21.026;2023-03-16T06:26:07;2.00;99.90
21393;DHT22;10857;52.228;21.026;2023-03-16T06:28:36;2.10;99.90
21393;DHT22;10857;52.228;21.026;2023-03-16T06:31:04;2.10;99.90
21393;DHT22;10857;52.228;21.026;2023-03-16T06:33:34;2.10;99.90
21393;DHT22;10857;52.228;21.026;2023-03-16T06:36:02;2.10;99.90
21393;DHT22;10857;52.228;21.026;2023-03-16T06:38:42;2.20;99.90
21393;DHT22;10857;52.228;21.026;2023-03-16T06:41:32;2.20;99.90
21393;DHT22;10857;52.228;21.026;2023-03-16T06:44:01;2.30;99.90
21393;DHT22;10857;52.228;21.026;2023-03-16T06:46:28;2.30;99.90
21393;DHT22;10857;52.228;21.026;2023-03-16T06:48:58;2.30;99.90
21393;DHT22;10857;52.228;21.026;2023-03-16T06:51:27;2.30;99.90
21393;DHT22;10857;52.228;21.026;2023-03-16T06:53:54;2.40;99.90
21393;DHT22;10857;52.228;21.026;2023-03-16T06:56:21;2.50;99.90
21393;DHT22;10857;52.228;21.026;2023-03-16T06:58:49;2.50;99.90
21393;DHT22;10857;52.228;21.026;2023-03-16T07:01:16;2.40;99.90
21393;DHT22;10857;52.228;21.026;2023-03-16T07:03:43;2.60;99.90
21393;DHT22;10857;52.228;21.026;2023-03-16T07:06:18;2.50;99.90
21393;DHT22;10857;52.228;21.026;2023-03-16T07:08:45;2.60;99.90
21393;DHT22;10857;52.228;21.026;2023-03-16T07:11:12;2.60;99.90
21393;DHT22;10857;52.228;21.026;2023-03-16T07:13:40;2.70;99.90
21393;DHT22;10857;52.228;21.026;2023-03-16T07:16:08;2.80;99.90
21393;DHT22;10857;52.228;21.026;2023-03-16T07:18:35;2.80;99.90
21393;DHT22;10857;52.228;21.026;2023-03-16T07:21:06;2.70;99.90
21393;DHT22;10857;52.228;21.026;2023-03-16T07:23:33;2.60;99.90
21393;DHT22;10857;52.228;21.026;2023-03-16T07:26:03;2.70;99.90
21393;DHT22;10857;52.228;21.026;2023-03-16T07:28:32;2.80;99.90
21393;DHT22;10857;52.228;21.026;2023-03-16T07:31:01;2.90;99.90
21393;DHT22;10857;52.228;21.026;2023-03-16T07:33:37;2.90;99.90
21393;DHT22;10857;52.228;21.026;2023-03-16T07:36:06;2.90;99.90
21393;DHT22;10857;52.228;21.026;2023-03-16T07:38:39;3.10;99.90
21393;DHT22;10857;52.228;21.026;2023-03-16T07:41:07;3.20;99.90
21393;DHT22;10857;52.228;21.026;2023-03-16T07:43:34;3.20;99.90
21393;DHT22;10857;52.228;21.026;2023-03-16T07:46:01;3.40;99.90
21393;DHT22;10857;52.228;21.026;2023-03-16T07:48:28;3.40;99.90
21393;DHT22;10857;52.228;21.026;2023-03-16T07:50:59;3.40;99.90
21393;DHT22;10857;52.228;21.026;2023-03-16T07:53:27;3.30;99.90
21393;DHT22;10857;52.228;21.026;2023-03-16T07:56:13;3.30;99.90
21393;DHT22;10857;52.228;21.026;2023-03-16T07:58:44;3.40;99.90
21393;DHT22;10857;52.228;21.026;2023-03-16T08:01:11;3.50;99.90
21393;DHT22;10857;52.228;21.026;2023-03-16T08:03:38;3.40;99.90
21393;DHT22;10857;52.228;21.026;2023-03-16T08:06:06;3.40;99.90
21393;DHT22;10857;52.228;21.026;2023-03-16T08:08:34;3.40;99.90
21393;DHT22;10857;52.228;21.026;2023-03-16T08:11:01;3.60;99.90
21393;DHT22;10857;52.228;21.026;2023-03-16T08:13:39;3.70;99.90
21393;DHT22;10857;52.228;21.026;2023-03-16T08:16:10;3.60;99.90
21393;DHT22;10857;52.228;21.026;2023-03-16T08:18:41;3.50;99.90
21393;DHT22;10857;52.228;21.026;2023-03-16T08:21:09;3.60;99.90
21393;DHT22;10857;52.228;21.026;2023-03-16T08:23:36;4.00;99.90
21393;DHT22;10857;52.228;21.026;2023-03-16T08:26:04;4.20;99.90
21393;DHT22;10857;52.228;21.026;2023-03-16T08:28:36;4.40;99.90
21393;DHT22;10857;52.228;21.026;2023-03-16T08:31:07;4.50;99.90
21393;DHT22;10857;52.228;21.026;2023-03-16T08:33:41;4.70;99.90
21393;DHT22;10857;52.228;21.026;2023-03-16T08:36:11;4.60;99.90
21393;DHT22;10857;52.228;21.026;2023-03-16T08:38:41;4.00;99.90
21393;DHT22;10857;52.228;21.026;2023-03-16T08:41:14;4.10;99.90
21393;DHT22;10857;52.228;21.026;2023-03-16T08:43:45;4.30;99.90
21393;DHT22;10857;52.228;21.026;2023-03-16T08:46:13;4.10;99.90
21393;DHT22;10857;52.228;21.026;2023-03-16T08:48:51;4.30;99.90
21393;DHT22;10857;52.228;21.026;2023-03-16T08:51:23;4.50;99.90
21393;DHT22;10857;52.228;21.026;2023-03-16T08:53:50;4.70;99.90
21393;DHT22;10857;52.228;21.026;2023-03-16T08:56:17;4.50;99.90
21393;DHT22;10857;52.228;21.026;2023-03-16T08:58:44;4.40;99.90
21393;DHT22;10857;52.228;21.026;2023-03-16T09:01:13;4.40;99.90
21393;DHT22;10857;52.228;21.026;2023-03-16T09:03:41;4.40;99.90
21393;DHT22;10857;52.228;21.026;2023-03-16T09:06:09;4.60;99.90
21393;DHT22;10857;52.228;21.026;2023-03-16T09:08:36;4.50;99.90
21393;DHT22;10857;52.228;21.026;2023-03-16T09:11:10;4.40;99.90
21393;DHT22;10857;52.228;21.026;2023-03-16T09:13:38;4.30;99.90
21393;DHT22;10857;52.228;21.026;2023-03-16T09:16:07;4.20;99.90
21393;DHT22;10857;52.228;21.026;2023-03-16T09:18:35;4.50;99.90
21393;DHT22;10857;52.228;21.026;2023-03-16T09:21:04;4.90;99.90
21393;DHT22;10857;52.228;21.026;2023-03-16T09:23:33;5.00;99.90
21393;DHT22;10857;52.228;21.026;2023-03-16T09:26:03;5.10;99.90
21393;DHT22;10857;52.228;21.026;2023-03-16T09:28:31;5.40;99.90
21393;DHT22;10857;52.228;21.026;2023-03-16T09:30:58;5.60;99.90
21393;DHT22;10857;52.228;21.026;2023-03-16T09:33:26;5.40;99.90
21393;DHT22;10857;52.228;21.026;2023-03-16T09:35:54;5.30;99.90
21393;DHT22;10857;52.228;21.026;2023-03-16T09:38:24;5.40;99.90
21393;DHT22;10857;52.228;21.026;2023-03-16T09:41:06;5.60;99.90
21393;DHT22;10857;52.228;21.026;2023-03-16T09:46:24;5.40;99.90
21393;DHT22;10857;52.228;21.026;2023-03-16T09:49:15;5.70;99.90
21393;DHT22;10857;52.228;21.026;2023-03-16T09:56:58;6.30;99.90
21393;DHT22;10857;52.228;21.026;2023-03-16T09:59:26;6.40;99.90
21393;DHT22;10857;52.228;21.026;2023-03-16T10:04:42;6.10;99.90
21393;DHT22;10857;52.228;21.026;2023-03-16T10:12:48;5.50;99.90
21393;DHT22;10857;52.228;21.026;2023-03-16T10:15:19;5.30;99.90
21393;DHT22;10857;52.228;21.026;2023-03-16T10:18:13;5.10;99.90
21393;DHT22;10857;52.228;21.026;2023-03-16T10:20:42;5.30;99.90
21393;DHT22;10857;52.228;21.026;2023-03-16T10:23:20;5.40;99.90
21393;DHT22;10857;52.228;21.026;2023-03-16T10:28:23;5.60;99.90
21393;DHT22;10857;52.228;21.026;2023-03-16T10:30:54;5.50;99.90
21393;DHT22;10857;52.228;21.026;2023-03-16T10:33:24;5.50;99.90
21393;DHT22;10857;52.228;21.026;2023-03-16T10:38:46;5.80;99.90
21393;DHT22;10857;52.228;21.026;2023-03-16T10:44:08;5.60;99.90
21393;DHT22;10857;52.228;21.026;2023-03-16T10:46:45;5.70;99.90
21393;DHT22;10857;52.228;21.026;2023-03-16T10:51:55;5.80;99.90
21393;DHT22;10857;52.228;21.026;2023-03-16T10:54:35;6.10;99.90
21393;DHT22;10857;52.228;21.026;2023-03-16T10:59:54;6.70;99.90
21393;DHT22;10857;52.228;21.026;2023-03-16T11:02:30;6.60;99.90
21393;DHT22;10857;52.228;21.026;2023-03-16T11:04:57;6.60;99.90
21393;DHT22;10857;52.228;21.026;2023-03-16T11:07:24;6.50;99.90
21393;DHT22;10857;52.228;21.026;2023-03-16T11:09:54;6.70;99.90
21393;DHT22;10857;52.228;21.026;2023-03-16T11:12:28;7.00;99.90
21393;DHT22;10857;52.228;21.026;2023-03-16T11:15:11;7.20;99.90
21393;DHT22;10857;52.228;21.026;2023-03-16T11:17:51;7.40;99.90
21393;DHT22;10857;52.228;21.026;2023-03-16T11:20:25;7.60;99.90
21393;DHT22;10857;52.228;21.026;2023-03-16T11:22:54;7.80;99.90
21393;DHT22;10857;52.228;21.026;2023-03-16T11:25:48;7.20;99.90
21393;DHT22;10857;52.228;21.026;2023-03-16T11:28:36;7.30;99.90
21393;DHT22;10857;52.228;21.026;2023-03-16T11:33:42;7.50;99.90
21393;DHT22;10857;52.228;21.026;2023-03-16T11:39:13;7.40;99.90
21393;DHT22;10857;52.228;21.026;2023-03-16T11:44:22;7.00;99.90
21393;DHT22;10857;52.228;21.026;2023-03-16T11:47:07;7.00;99.90
21393;DHT22;10857;52.228;21.026;2023-03-16T11:52:29;6.50;99.90
21393;DHT22;10857;52.228;21.026;2023-03-16T11:58:41;6.50;99.90
21393;DHT22;10857;52.228;21.026;2023-03-16T12:01:44;6.60;99.90
21393;DHT22;10857;52.228;21.026;2023-03-16T12:07:50;6.10;99.90
21393;DHT22;10857;52.228;21.026;2023-03-16T12:16:00;5.90;99.90
21393;DHT22;10857;52.228;21.026;2023-03-16T12:21:05;5.80;99.90
21393;DHT22;10857;52.228;21.026;2023-03-16T12:23:42;5.90;99.90
21393;DHT22;10857;52.228;21.026;2023-03-16T12:26:14;6.20;99.90
21393;DHT22;10857;52.228;21.026;2023-03-16T12:28:43;6.20;99.90
21393;DHT22;10857;52.228;21.026;2023-03-16T12:31:17;6.30;99.90
21393;DHT22;10857;52.228;21.026;2023-03-16T12:37:00;6.30;99.90
21393;DHT22;10857;52.228;21.026;2023-03-16T12:45:03;6.20;99.90
21393;DHT22;10857;52.228;21.026;2023-03-16T12:47:42;6.10;99.90
21393;DHT22;10857;52.228;21.026;2023-03-16T12:50:13;6.00;99.90
21393;DHT22;10857;52.228;21.026;2023-03-16T12:52:47;6.10;99.90
21393;DHT22;10857;52.228;21.026;2023-03-16T12:58:06;5.80;99.90
21393;DHT22;10857;52.228;21.026;2023-03-16T13:00:36;5.80;99.90
21393;DHT22;10857;52.228;21.026;2023-03-16T13:03:05;5.80;99.90
21393;DHT22;10857;52.228;21.026;2023-03-16T13:05:44;5.80;99.90
21393;DHT22;10857;52.228;21.026;2023-03-16T13:08:16;5.70;99.90
21393;DHT22;10857;52.228;21.026;2023-03-16T13:13:26;5.70;99.90
21393;DHT22;10857;52.228;21.026;2023-03-16T13:16:07;5.80;99.90
21393;DHT22;10857;52.228;21.026;2023-03-16T13:18:41;5.90;99.90
21393;DHT22;10857;52.228;21.026;2023-03-16T13:21:35;5.90;99.90
21393;DHT22;10857;52.228;21.026;2023-03-16T13:26:57;6.10;99.90
21393;DHT22;10857;52.228;21.026;2023-03-16T13:29:28;6.20;99.90
21393;DHT22;10857;52.228;21.026;2023-03-16T13:31:58;6.20;99.90
21393;DHT22;10857;52.228;21.026;2023-03-16T13:34:31;6.20;99.90
21393;DHT22;10857;52.228;21.026;2023-03-16T13:36:59;6.20;99.90
21393;DHT22;10857;52.228;21.026;2023-03-16T13:39:29;6.30;99.90
21393;DHT22;10857;52.228;21.026;2023-03-16T13:42:11;6.40;99.90
21393;DHT22;10857;52.228;21.026;2023-03-16T13:44:40;6.50;99.90
21393;DHT22;10857;52.228;21.026;2023-03-16T13:47:12;6.60;99.90
21393;DHT22;10857;52.228;21.026;2023-03-16T13:49:44;6.60;99.90
21393;DHT22;10857;52.228;21.026;2023-03-16T13:52:33;6.80;99.90
21393;DHT22;10857;52.228;21.026;2023-03-16T13:55:14;6.60;99.90
21393;DHT22;10857;52.228;21.026;2023-03-16T13:57:43;6.50;99.90
21393;DHT22;10857;52.228;21.026;2023-03-16T14:02:52;6.20;99.90
21393;DHT22;10857;52.228;21.026;2023-03-16T14:05:25;6.00;99.90
21393;DHT22;10857;52.228;21.026;2023-03-16T14:07:55;6.20;99.90
21393;DHT22;10857;52.228;21.026;2023-03-16T14:10:35;6.10;99.90
21393;DHT22;10857;52.228;21.026;2023-03-16T14:16:13;6.50;99.90
21393;DHT22;10857;52.228;21.026;2023-03-16T14:19:02;6.60;99.90
21393;DHT22;10857;52.228;21.026;2023-03-16T14:21:44;6.60;99.90
21393;DHT22;10857;52.228;21.026;2023-03-16T14:24:34;6.40;99.90
21393;DHT22;10857;52.228;21.026;2023-03-16T14:27:41;6.40;99.90
21393;DHT22;10857;52.228;21.026;2023-03-16T14:30:17;6.50;99.90
21393;DHT22;10857;52.228;21.026;2023-03-16T14:35:38;6.50;99.90
21393;DHT22;10857;52.228;21.026;2023-03-16T14:38:32;6.30;99.90
21393;DHT22;10857;52.228;21.026;2023-03-16T14:41:24;6.30;99.90
21393;DHT22;10857;52.228;21.026;2023-03-16T14:43:57;6.20;99.90
21393;DHT22;10857;52.228;21.026;2023-03-16T14:46:27;6.20;99.90
21393;DHT22;10857;52.228;21.026;2023-03-16T14:49:13;6.10;99.90
21393;DHT22;10857;52.228;21.026;2023-03-16T14:51:45;6.30;99.90
21393;DHT22;10857;52.228;21.026;2023-03-16T14:54:20;6.30;99.90
21393;DHT22;10857;52.228;21.026;2023-03-16T14:56:52;6.40;99.90
21393;DHT22;10857;52.228;21.026;2023-03-16T14:59:24;6.50;99.90
21393;DHT22;10857;52.228;21.026;2023-03-16T15:01:52;6.30;99.90
21393;DHT22;10857;52.228;21.026;2023-03-16T15:04:27;6.10;99.90
21393;DHT22;10857;52.228;21.026;2023-03-16T15:06:57;6.10;99.90
21393;DHT22;10857;52.228;21.026;2023-03-16T15:09:39;6.10;99.90
21393;DHT22;10857;52.228;21.026;2023-03-16T15:12:20;6.20;99.90
21393;DHT22;10857;52.228;21.026;2023-03-16T15:14:56;6.30;99.90
21393;DHT22;10857;52.228;21.026;2023-03-16T15:17:57;6.40;99.90
21393;DHT22;10857;52.228;21.026;2023-03-16T15:20:33;6.30;99.90
21393;DHT22;10857;52.228;21.026;2023-03-16T15:23:11;6.20;99.90
21393;DHT22;10857;52.228;21.026;2023-03-16T15:25:43;6.10;99.90
21393;DHT22;10857;52.228;21.026;2023-03-16T15:28:21;6.00;99.90
21393;DHT22;10857;52.228;21.026;2023-03-16T15:30:55;5.90;99.90
21393;DHT22;10857;52.228;21.026;2023-03-16T15:33:33;6.00;99.90
21393;DHT22;10857;52.228;21.026;2023-03-16T15:36:22;5.90;99.90
21393;DHT22;10857;52.228;21.026;2023-03-16T15:38:52;5.90;99.90
21393;DHT22;10857;52.228;21.026;2023-03-16T15:41:22;5.90;99.90
21393;DHT22;10857;52.228;21.026;2023-03-16T15:43:59;5.80;99.90
21393;DHT22;10857;52.228;21.026;2023-03-16T15:46:27;5.80;99.90
21393;DHT22;10857;52.228;21.026;2023-03-16T15:48:59;5.80;99.90
21393;DHT22;10857;52.228;21.026;2023-03-16T15:51:28;5.80;99.90
21393;DHT22;10857;52.228;21.026;2023-03-16T15:53:58;5.80;99.90
21393;DHT22;10857;52.228;21.026;2023-03-16T15:56:32;5.90;99.90
21393;DHT22;10857;52.228;21.026;2023-03-16T15:59:17;5.80;99.90
21393;DHT22;10857;52.228;21.026;2023-03-16T16:01:46;5.80;99.90
21393;DHT22;10857;52.228;21.026;2023-03-16T16:04:21;5.80;99.90
21393;DHT22;10857;52.228;21.026;2023-03-16T16:06:51;5.90;99.90
21393;DHT22;10857;52.228;21.026;2023-03-16T16:09:26;5.80;99.90
21393;DHT22;10857;52.228;21.026;2023-03-16T16:11:56;5.80;99.90
21393;DHT22;10857;52.228;21.026;2023-03-16T16:14:25;5.70;99.90
21393;DHT22;10857;52.228;21.026;2023-03-16T16:16:55;5.80;99.90
21393;DHT22;10857;52.228;21.026;2023-03-16T16:19:22;5.70;99.90
21393;DHT22;10857;52.228;21.026;2023-03-16T16:21:51;5.60;99.90
21393;DHT22;10857;52.228;21.026;2023-03-16T16:24:19;5.60;99.90
21393;DHT22;10857;52.228;21.026;2023-03-16T16:26:53;5.60;99.90
21393;DHT22;10857;52.228;21.026;2023-03-16T16:29:32;5.60;99.90
21393;DHT22;10857;52.228;21.026;2023-03-16T16:32:00;5.50;99.90
21393;DHT22;10857;52.228;21.026;2023-03-16T16:34:29;5.50;99.90
21393;DHT22;10857;52.228;21.026;2023-03-16T16:36:58;5.40;99.90
21393;DHT22;10857;52.228;21.026;2023-03-16T16:39:27;5.40;99.90
21393;DHT22;10857;52.228;21.026;2023-03-16T16:41:55;5.30;99.90
21393;DHT22;10857;52.228;21.026;2023-03-16T16:44:26;5.20;99.90
21393;DHT22;10857;52.228;21.026;2023-03-16T16:46:55;5.10;99.90
21393;DHT22;10857;52.228;21.026;2023-03-16T16:49:25;5.10;99.90
21393;DHT22;10857;52.228;21.026;2023-03-16T16:51:53;5.00;99.90
21393;DHT22;10857;52.228;21.026;2023-03-16T16:54:27;5.00;99.90
21393;DHT22;10857;52.228;21.026;2023-03-16T16:56:55;5.00;99.90
21393;DHT22;10857;52.228;21.026;2023-03-16T16:59:30;5.00;99.90
21393;DHT22;10857;52.228;21.026;2023-03-16T17:02:01;5.00;99.90
21393;DHT22;10857;52.228;21.026;2023-03-16T17:04:31;5.00;99.90
21393;DHT22;10857;52.228;21.026;2023-03-16T17:06:59;5.00;99.90
21393;DHT22;10857;52.228;21.026;2023-03-16T17:09:28;5.00;99.90
21393;DHT22;10857;52.228;21.026;2023-03-16T17:11:58;4.90;99.90
21393;DHT22;10857;52.228;21.026;2023-03-16T17:14:27;4.90;99.90
21393;DHT22;10857;52.228;21.026;2023-03-16T17:16:57;4.90;99.90
21393;DHT22;10857;52.228;21.026;2023-03-16T17:19:30;4.90;99.90
21393;DHT22;10857;52.228;21.026;2023-03-16T17:21:58;4.90;99.90
21393;DHT22;10857;52.228;21.026;2023-03-16T17:24:27;4.90;99.90
21393;DHT22;10857;52.228;21.026;2023-03-16T17:27:08;4.90;99.90
21393;DHT22;10857;52.228;21.026;2023-03-16T17:29:37;4.80;99.90
21393;DHT22;10857;52.228;21.026;2023-03-16T17:32:19;4.80;99.90